METAR Analyzer

一覧表示

Hello, Guest. (Login)

TNCM/SXM  -  プリンセス・ジュリアナ/セントマーティン

観測日時
2020-10-20 03:00 (UTC) (32分前)
気温
28
露点
22
湿数
6
相対湿度
69.9%
QNH
1010hPa
推定現地気圧
1009.5hPa
推定海面気圧
1010.0hPa
体感温度
22.5
(無風時)
26.7
HI
30.7
気温前日比
+2
体感温度前日比
-1.9
HI前日比
+3.7
水平視程
>10000m
鉛直視程
データなし
雲底高度
No dense clouds
V/I
VMC (VFR)
RVR
No RVR data
卓越風
9kt from 270°
ガスト
No gust
降水
報告なし
その他の天気
報告なし
少しの雲 @ 2200ft AGL

TNCM 200300Z 27009KT 9999 FEW022 28/22 Q1010

TIST/STT  -  シリル・E・キング

観測日時
2020-10-20 02:53 (UTC) (39分前)
気温
27.2
露点
22.2
湿数
5
相対湿度
74.2%
QNH
1010.2hPa
推定現地気圧
1009.4hPa
推定海面気圧
1010.2hPa
体感温度
23
(無風時)
26.4
HI
29.6
気温前日比
±0
体感温度前日比
-3.1
HI前日比
+0.5
水平視程
>10SM
鉛直視程
データなし
雲底高度
No dense clouds
V/I
VMC (VFR)
RVR
No RVR data
卓越風
4kt from 360°
ガスト
No gust
降水
報告なし
その他の天気
報告なし
目立った雲なし

TIST 200253Z AUTO 36004KT 10SM CLR 27/22 A2983 RMK AO2 SLP101 T02720222 50008

MUHA/HAV  -  ホセ・マルティ

観測日時
2020-10-20 02:55 (UTC) (37分前)
気温
23
露点
23
湿数
0
相対湿度
100%
QNH
1012hPa
推定現地気圧
1004.3hPa
推定海面気圧
1011.7hPa
体感温度
16.6
(無風時)
24.4
HI
24
気温前日比
-1
体感温度前日比
-1.9
HI前日比
-1.1
水平視程
9000m
鉛直視程
データなし
雲底高度
4000ft AGL
V/I
VMC (VFR)
RVR
No RVR data
卓越風
11kt from 80°
ガスト
No gust
降水
報告なし
その他の天気
報告なし
隙間のある雲 @ 4000ft AGL

MUHA 200255Z 08011KT 9000 BKN040 23/23 Q1012

MDSD/SDQ  -  ラス・アメリカス

観測日時
2020-10-20 03:00 (UTC) (32分前)
気温
25
露点
23
湿数
2
相対湿度
88.7%
QNH
1011hPa
推定現地気圧
1009.0hPa
推定海面気圧
1011.0hPa
体感温度
21.1
(無風時)
25.5
HI
25.9
気温前日比
±0
体感温度前日比
-0.3
HI前日比
-0.1
水平視程
>10000m
鉛直視程
データなし
雲底高度
No dense clouds
V/I
VMC (VFR)
RVR
No RVR data
卓越風
4kt from 30°
ガスト
No gust
降水
報告なし
その他の天気
報告なし
少しの積乱雲 @ 1600ft AGL / 散在する雲 @ 1800ft AGL / 散在する雲 @ 30000ft AGL

MDSD 200300Z 03004KT 9999 FEW016CB SCT018 SCT300 25/23 Q1011 CB/SW

MDPC/PUJ  -  プンタ・カーナ

観測日時
2020-10-20 03:00 (UTC) (32分前)
気温
24
露点
23
湿数
1
相対湿度
94.1%
QNH
1011hPa
推定現地気圧
1009.3hPa
推定海面気圧
1010.9hPa
体感温度
20.7
(無風時)
24.9
HI
24.9
気温前日比
-3
体感温度前日比
-1.2
HI前日比
-4.7
水平視程
>10000m
鉛直視程
データなし
雲底高度
No dense clouds
V/I
VMC (VFR)
RVR
No RVR data
卓越風
3kt from 30°
ガスト
No gust
降水
報告なし
その他の天気
報告なし
少しの雲 @ 1800ft AGL

MDPC 200300Z 03003KT 9999 FEW018 24/23 Q1011 NOSIG

TJSJ/SJU  -  ルイス・ムニョス・マリン

観測日時
2020-10-20 02:56 (UTC) (36分前)
気温
27.2
露点
22.2
湿数
5
相対湿度
74.2%
QNH
1010.8hPa
推定現地気圧
1010.4hPa
推定海面気圧
1010.7hPa
体感温度
23.4
(無風時)
26.4
HI
29.6
気温前日比
+0.5
体感温度前日比
-2.9
HI前日比
+0.6
水平視程
>10SM
鉛直視程
データなし
雲底高度
No dense clouds
V/I
VMC (VFR)
RVR
No RVR data
卓越風
3kt from 290°
ガスト
No gust
降水
報告なし
その他の天気
報告なし
少しの雲 @ 3500ft AGL / 散在する雲 @ 6000ft AGL

TJSJ 200256Z 29003KT 10SM FEW035 SCT060 27/22 A2985 RMK AO2 SLP107 60000 T02720222 51011

8.6msec